Time;durP1;ratioP1;P1;durP2;ratioP2;P2;SDS_P1;SDS_P2;PMS_P1;PMS_P2;Temp;Humidity;BMP_temperature;BMP_pressure;BME280_temperature;BME280_humidity;BME280_pressure;Samples;Min_cycle;Max_cycle;Signal;HPM_P1;HPM_P2
2023/02/04 00:01:42;;;;;;;27.77;5.40;;;;;;;5.74;100.00;103100.53;5083724;28;20077;-80
2023/02/04 00:04:08;;;;;;;27.08;5.38;;;;;;;5.69;100.00;103094.09;5086069;28;20082;-77
2023/02/04 00:06:33;;;;;;;26.17;5.45;;;;;;;5.71;100.00;103098.63;5083987;28;20036;-80
2023/02/04 00:08:58;;;;;;;25.98;5.55;;;;;;;5.77;100.00;103092.84;5085687;28;20025;-77
2023/02/04 00:11:24;;;;;;;26.70;5.10;;;;;;;5.80;100.00;103097.38;5084416;28;20090;-79
2023/02/04 00:13:49;;;;;;;26.35;5.15;;;;;;;5.71;100.00;103098.63;5083932;28;20021;-79
2023/02/04 00:16:14;;;;;;;27.10;5.25;;;;;;;5.78;100.00;103093.72;5085539;28;20387;-80
2023/02/04 00:18:40;;;;;;;28.77;5.13;;;;;;;5.81;100.00;103097.47;5082858;28;20440;-77
2023/02/04 00:21:05;;;;;;;24.55;4.80;;;;;;;5.76;100.00;103091.00;5086745;28;20055;-75
2023/02/04 00:23:30;;;;;;;25.48;5.35;;;;;;;5.71;100.00;103105.59;5083291;28;20054;-76
2023/02/04 00:25:56;;;;;;;24.63;5.05;;;;;;;5.72;100.00;103099.50;5084466;28;20113;-76
2023/02/04 00:28:21;;;;;;;26.52;5.07;;;;;;;5.72;100.00;103102.13;5084772;28;20032;-76
2023/02/04 00:30:46;;;;;;;26.08;5.07;;;;;;;5.75;100.00;103107.56;5083433;28;20052;-76
2023/02/04 00:33:12;;;;;;;27.48;5.07;;;;;;;5.84;100.00;103107.22;5086015;28;20028;-75
2023/02/04 00:35:38;;;;;;;26.35;5.05;;;;;;;5.80;100.00;103106.13;5082934;28;20067;-76
2023/02/04 00:38:05;;;;;;;24.55;4.45;;;;;;;5.84;100.00;103120.34;5085874;28;20051;-76
2023/02/04 00:40:31;;;;;;;25.88;5.03;;;;;;;5.79;100.00;103111.31;5082777;28;20033;-76
2023/02/04 00:42:56;;;;;;;25.17;4.60;;;;;;;5.80;100.00;103115.75;5084566;28;20028;-76
2023/02/04 00:45:21;;;;;;;25.50;4.95;;;;;;;5.86;100.00;103117.00;5084358;28;20054;-76
2023/02/04 00:47:46;;;;;;;23.30;4.65;;;;;;;5.87;100.00;103123.19;5083575;28;20067;-76
2023/02/04 00:50:12;;;;;;;27.05;4.90;;;;;;;5.77;100.00;103119.09;5085620;28;20031;-76
2023/02/04 00:52:37;;;;;;;23.92;5.10;;;;;;;5.75;100.00;103119.00;5082316;28;20032;-76
2023/02/04 00:55:03;;;;;;;25.85;4.78;;;;;;;5.73;100.00;103117.09;5083635;28;20119;-76
2023/02/04 00:57:28;;;;;;;26.10;5.35;;;;;;;5.70;100.00;103124.78;5082784;28;20067;-76
2023/02/04 00:59:54;;;;;;;26.45;5.15;;;;;;;5.67;100.00;103121.97;5084065;28;20036;-76
2023/02/04 01:02:19;;;;;;;27.25;5.60;;;;;;;5.71;100.00;103123.97;5084930;28;20035;-76
2023/02/04 01:04:44;;;;;;;25.67;5.50;;;;;;;5.61;100.00;103119.88;5082670;28;20032;-75
2023/02/04 01:07:10;;;;;;;24.42;5.07;;;;;;;5.66;100.00;103130.66;5084829;28;20410;-76
2023/02/04 01:09:35;;;;;;;25.98;5.50;;;;;;;5.63;100.00;103120.84;5082340;28;20421;-76
2023/02/04 01:12:00;;;;;;;26.88;5.57;;;;;;;5.57;100.00;103117.88;5084398;28;20509;-76
2023/02/04 01:14:26;;;;;;;27.00;5.45;;;;;;;5.58;100.00;103124.94;5083484;28;20047;-76
2023/02/04 01:16:51;;;;;;;25.98;5.50;;;;;;;5.61;100.00;103134.69;5083810;28;20037;-76
2023/02/04 01:19:17;;;;;;;25.23;5.13;;;;;;;5.56;100.00;103130.09;5084377;28;20024;-76
2023/02/04 01:21:43;;;;;;;28.65;5.93;;;;;;;5.55;100.00;103133.50;5081580;28;20036;-76
2023/02/04 01:24:08;;;;;;;29.80;5.78;;;;;;;5.48;100.00;103128.69;5085455;28;20028;-76
2023/02/04 01:26:33;;;;;;;29.42;5.93;;;;;;;5.46;100.00;103130.34;5082081;28;20089;-76
2023/02/04 01:28:59;;;;;;;25.75;5.80;;;;;;;5.38;100.00;103139.44;5084515;28;20116;-76
2023/02/04 01:31:24;;;;;;;30.25;6.13;;;;;;;5.38;100.00;103136.81;5083258;28;20052;-76
2023/02/04 01:33:51;;;;;;;27.23;5.90;;;;;;;5.38;100.00;103144.69;5082336;28;20163;-76
2023/02/04 01:36:20;;;;;;;27.60;5.60;;;;;;;5.34;100.00;103153.16;5084734;28;20089;-76
2023/02/04 01:38:46;;;;;;;28.42;5.97;;;;;;;5.33;100.00;103153.97;5082090;28;20098;-76
2023/02/04 01:41:11;;;;;;;31.10;6.15;;;;;;;5.29;100.00;103152.88;5085046;28;20036;-76
2023/02/04 01:43:37;;;;;;;29.67;6.50;;;;;;;5.27;100.00;103169.34;5081473;28;20033;-76
2023/02/04 01:46:02;;;;;;;27.52;6.00;;;;;;;5.21;100.00;103165.53;5084532;28;20024;-76
2023/02/04 01:48:29;;;;;;;28.33;6.38;;;;;;;5.20;100.00;103161.09;5082072;28;20462;-76
2023/02/04 01:51:02;;;;;;;29.00;5.82;;;;;;;5.17;100.00;103158.28;5083451;28;20033;-76
2023/02/04 01:53:28;;;;;;;28.55;6.53;;;;;;;5.10;100.00;103158.69;5082558;28;20020;-76
2023/02/04 01:55:54;;;;;;;30.38;6.75;;;;;;;5.10;100.00;103163.00;5083076;28;20025;-76
2023/02/04 01:58:19;;;;;;;29.33;6.78;;;;;;;5.07;100.00;103159.38;5084194;28;20052;-76
2023/02/04 02:00:44;;;;;;;30.05;7.03;;;;;;;5.07;100.00;103169.88;5081987;28;20099;-76
2023/02/04 02:03:10;;;;;;;29.20;6.30;;;;;;;4.99;100.00;103167.56;5084164;28;20032;-76
2023/02/04 02:05:42;;;;;;;31.50;6.90;;;;;;;4.95;100.00;103173.44;5081600;28;20064;-76
2023/02/04 02:08:09;;;;;;;30.47;6.57;;;;;;;4.95;100.00;103183.91;5081273;28;20078;-76
2023/02/04 02:10:37;;;;;;;29.50;6.57;;;;;;;4.95;100.00;103178.66;5087417;28;20028;-76
2023/02/04 02:13:04;;;;;;;29.63;6.80;;;;;;;4.92;100.00;103187.22;5086161;28;20020;-76
2023/02/04 02:15:29;;;;;;;30.35;6.80;;;;;;;4.87;100.00;103180.81;5088255;28;20411;-76
2023/02/04 02:17:54;;;;;;;30.48;6.40;;;;;;;4.89;100.00;103179.16;5086359;28;20028;-76
2023/02/04 02:20:22;;;;;;;29.52;6.90;;;;;;;4.80;100.00;103178.59;5086568;28;20378;-76
2023/02/04 02:22:55;;;;;;;28.52;6.70;;;;;;;4.72;100.00;103175.47;5087820;28;20086;-76
2023/02/04 02:25:20;;;;;;;;;;;;;;;4.70;100.00;103183.25;5086931;28;20508;-76
2023/02/04 02:27:46;;;;;;;31.17;6.53;;;;;;;4.61;100.00;103177.38;5087939;28;20042;-76
2023/02/04 02:30:13;;;;;;;29.20;6.75;;;;;;;4.54;100.00;103173.47;5085160;28;20422;-76
2023/02/04 02:32:39;;;;;;;32.15;7.05;;;;;;;4.44;100.00;103176.28;5084411;28;20021;-76
2023/02/04 02:35:05;;;;;;;33.03;6.95;;;;;;;4.42;100.00;103183.09;5088354;28;20028;-76
2023/02/04 02:37:31;;;;;;;34.60;7.22;;;;;;;4.40;100.00;103184.72;5085482;28;20145;-75
2023/02/04 02:39:57;;;;;;;30.65;7.10;;;;;;;4.32;100.00;103184.19;5086981;28;20107;-76
2023/02/04 02:42:23;;;;;;;33.78;7.40;;;;;;;4.26;100.00;103188.13;5086919;28;20024;-76
2023/02/04 02:44:49;;;;;;;32.92;6.93;;;;;;;4.15;100.00;103185.69;5084816;28;20533;-76
2023/02/04 02:47:18;;;;;;;33.20;7.45;;;;;;;4.14;100.00;103191.72;5087770;28;20058;-76
2023/02/04 02:49:47;;;;;;;31.75;7.80;;;;;;;4.10;100.00;103191.41;5085121;28;20464;-76
2023/02/04 02:52:13;;;;;;;33.28;7.40;;;;;;;4.09;100.00;103180.03;5088080;28;20055;-76
2023/02/04 02:54:39;;;;;;;32.80;7.72;;;;;;;4.00;100.00;103190.78;5084531;28;20055;-76
2023/02/04 02:57:17;;;;;;;31.73;7.68;;;;;;;3.99;100.00;103188.03;5087655;28;20028;-76
2023/02/04 02:59:43;;;;;;;30.77;7.45;;;;;;;3.94;100.00;103202.53;5084709;28;20023;-76
2023/02/04 03:02:12;;;;;;;32.53;7.95;;;;;;;3.87;100.00;103200.28;5087612;28;20028;-76
2023/02/04 03:04:42;;;;;;;32.05;7.07;;;;;;;3.88;100.00;103204.75;5084387;28;20028;-76
2023/02/04 03:07:08;;;;;;;31.13;7.28;;;;;;;3.82;100.00;103202.59;5084666;28;20071;-76
2023/02/04 03:09:34;;;;;;;33.17;7.63;;;;;;;3.76;100.00;103199.56;5087172;28;20028;-76
2023/02/04 03:12:00;;;;;;;34.90;9.00;;;;;;;3.77;100.00;103202.28;5084694;28;20078;-76
2023/02/04 03:14:26;;;;;;;31.85;8.63;;;;;;;3.75;100.00;103197.75;5085998;28;20024;-76
2023/02/04 03:16:54;;;;;;;30.02;7.53;;;;;;;3.70;100.00;103205.28;5086068;28;20470;-76
2023/02/04 03:19:20;;;;;;;32.85;8.20;;;;;;;3.68;100.00;103201.63;5085181;28;20078;-76
2023/02/04 03:21:46;;;;;;;30.02;8.02;;;;;;;3.58;100.00;103207.00;5087143;28;20031;-76
2023/02/04 03:24:11;;;;;;;30.73;8.23;;;;;;;3.54;100.00;103202.34;5083574;28;20494;-76
2023/02/04 03:26:37;;;;;;;30.95;7.88;;;;;;;3.51;100.00;103204.75;5087609;28;20028;-75
2023/02/04 03:29:07;;;;;;;29.08;7.55;;;;;;;3.47;100.00;103216.72;5084168;28;20032;-76
2023/02/04 03:31:32;;;;;;;28.65;7.30;;;;;;;3.38;100.00;103219.59;5086350;28;20037;-76
2023/02/04 03:33:57;;;;;;;28.17;6.80;;;;;;;3.32;100.00;103211.31;5085173;28;20093;-76
2023/02/04 03:36:23;;;;;;;29.48;6.65;;;;;;;3.29;100.00;103224.13;5085477;28;20418;-76
2023/02/04 03:38:51;;;;;;;27.67;4.80;;;;;;;3.20;100.00;103227.00;5086471;28;20112;-76
2023/02/04 03:41:16;;;;;;;30.10;5.80;;;;;;;3.28;100.00;103230.19;5084094;28;20044;-76
2023/02/04 03:43:41;;;;;;;27.83;6.07;;;;;;;3.26;100.00;103224.84;5086582;28;20024;-76
2023/02/04 03:46:07;;;;;;;28.20;5.80;;;;;;;3.27;100.00;103234.50;5083678;28;20032;-76
2023/02/04 03:48:32;;;;;;;26.67;6.32;;;;;;;3.27;100.00;103237.09;5086207;28;20077;-76
2023/02/04 03:50:57;;;;;;;36.42;7.70;;;;;;;3.24;100.00;103238.59;5085096;28;20064;-76
2023/02/04 03:53:23;;;;;;;29.45;7.25;;;;;;;3.26;100.00;103237.94;5085005;28;20032;-76
2023/02/04 03:55:48;;;;;;;35.83;8.10;;;;;;;3.18;100.00;103240.78;5085683;28;20046;-75
2023/02/04 03:58:14;;;;;;;31.63;7.78;;;;;;;3.17;100.00;103236.34;5083418;28;20026;-76
2023/02/04 04:00:39;;;;;;;29.65;7.38;;;;;;;3.13;100.00;103241.34;5086916;28;20060;-76
2023/02/04 04:03:04;;;;;;;31.02;7.32;;;;;;;3.04;100.00;103232.81;5083609;28;20103;-76
2023/02/04 04:05:30;;;;;;;36.08;8.88;;;;;;;3.04;100.00;103235.44;5086027;28;20033;-76
2023/02/04 04:07:55;;;;;;;40.53;7.90;;;;;;;2.95;100.00;103240.88;5085102;28;20386;-76
2023/02/04 04:10:20;;;;;;;30.63;7.32;;;;;;;2.85;100.00;103232.28;5083763;28;20020;-76
2023/02/04 04:12:46;;;;;;;53.28;6.90;;;;;;;2.77;100.00;103235.22;5085698;28;20533;-76
2023/02/04 04:15:11;;;;;;;155.50;10.98;;;;;;;2.71;100.00;103232.16;5083099;28;20060;-76
2023/02/04 04:17:36;;;;;;;100.03;9.00;;;;;;;2.61;100.00;103229.66;5086491;28;20024;-76
2023/02/04 04:20:02;;;;;;;109.72;10.85;;;;;;;2.63;100.00;103235.00;5083131;28;20032;-76
2023/02/04 04:22:28;;;;;;;92.20;10.15;;;;;;;2.57;100.00;103241.56;5083282;28;20051;-76
2023/02/04 04:24:53;;;;;;;235.45;14.20;;;;;;;2.51;100.00;103240.22;5084400;28;20036;-76
2023/02/04 04:27:18;;;;;;;109.68;10.73;;;;;;;2.48;100.00;103239.97;5083398;28;20063;-76
2023/02/04 04:29:44;;;;;;;95.07;9.75;;;;;;;2.40;100.00;103242.00;5085915;28;20035;-76
2023/02/04 04:32:09;;;;;;;149.02;11.50;;;;;;;2.37;100.00;103247.88;5082632;28;20024;-76
2023/02/04 04:34:35;;;;;;;180.73;12.60;;;;;;;2.35;100.00;103254.69;5085751;28;20039;-76
2023/02/04 04:37:00;;;;;;;214.00;14.05;;;;;;;2.36;100.00;103248.69;5083219;28;20119;-76
2023/02/04 04:39:26;;;;;;;125.15;11.82;;;;;;;2.39;100.00;103251.53;5084348;28;20511;-76
2023/02/04 04:41:51;;;;;;;104.82;10.73;;;;;;;2.45;100.00;103251.09;5083755;28;20020;-76
2023/02/04 04:44:16;;;;;;;92.05;10.32;;;;;;;2.49;100.00;103252.22;5083030;28;20383;-76
2023/02/04 04:46:42;;;;;;;84.22;10.35;;;;;;;2.55;100.00;103256.22;5085913;28;20051;-76
2023/02/04 04:49:07;;;;;;;72.35;9.20;;;;;;;2.67;100.00;103258.84;5081061;28;20141;-76
2023/02/04 04:51:32;;;;;;;73.05;10.07;;;;;;;2.79;100.00;103264.97;5084705;28;20074;-76
2023/02/04 04:53:58;;;;;;;59.47;8.98;;;;;;;2.93;100.00;103262.50;5083419;28;20032;-76
2023/02/04 04:56:24;;;;;;;97.43;10.68;;;;;;;2.98;100.00;103261.13;5083508;28;20036;-76
2023/02/04 04:58:49;;;;;;;60.53;10.60;;;;;;;3.10;100.00;103255.88;5085111;28;20490;-76
2023/02/04 05:01:15;;;;;;;60.33;11.05;;;;;;;3.12;100.00;103252.59;5082388;28;20047;-76
2023/02/04 05:03:40;;;;;;;58.75;10.80;;;;;;;3.13;100.00;103262.25;5085189;28;20390;-76
2023/02/04 05:06:07;;;;;;;84.28;12.55;;;;;;;3.18;100.00;103266.91;5082600;28;20032;-76
2023/02/04 05:08:34;;;;;;;93.15;12.75;;;;;;;3.16;100.00;103264.19;5085125;28;20037;-76
2023/02/04 05:11:00;;;;;;;102.65;13.60;;;;;;;3.19;100.00;103269.66;5083313;28;20024;-76
2023/02/04 05:13:25;;;;;;;52.85;10.85;;;;;;;3.22;100.00;103272.47;5083682;28;20028;-76
2023/02/04 05:15:51;;;;;;;64.95;13.52;;;;;;;3.30;100.00;103280.88;5084337;28;20483;-76
2023/02/04 05:18:16;;;;;;;66.22;14.32;;;;;;;3.41;100.00;103287.81;5081853;28;20039;-77
2023/02/04 05:20:41;;;;;;;53.78;14.20;;;;;;;3.54;100.00;103293.91;5085444;28;20093;-80
2023/02/04 05:23:07;;;;;;;56.35;14.88;;;;;;;3.63;100.00;103287.63;5081964;28;20020;-80
2023/02/04 05:25:32;;;;;;;54.80;14.55;;;;;;;3.76;100.00;103293.75;5084520;28;20040;-79
2023/02/04 05:27:57;;;;;;;65.20;16.83;;;;;;;3.86;100.00;103292.69;5083186;28;20032;-79
2023/02/04 05:30:23;;;;;;;67.50;17.02;;;;;;;3.90;100.00;103287.78;5082477;28;20044;-77
2023/02/04 05:32:48;;;;;;;59.47;16.27;;;;;;;3.90;100.00;103289.50;5084215;28;20141;-80
2023/02/04 05:35:14;;;;;;;56.70;15.02;;;;;;;3.89;100.00;103291.22;5081586;28;20028;-78
2023/02/04 05:37:39;;;;;;;59.35;15.93;;;;;;;3.92;100.00;103287.91;5084966;28;20056;-77
2023/02/04 05:40:05;;;;;;;54.22;15.65;;;;;;;3.91;100.00;103284.38;5082398;28;20120;-78
2023/02/04 05:42:31;;;;;;;52.72;15.70;;;;;;;3.89;100.00;103290.28;5083936;28;20039;-78
2023/02/04 05:44:56;;;;;;;56.97;15.98;;;;;;;3.79;100.00;103284.41;5081689;28;20035;-77
2023/02/04 05:47:21;;;;;;;57.13;15.55;;;;;;;3.71;100.00;103287.28;5082794;28;20021;-78
2023/02/04 05:49:47;;;;;;;59.20;15.70;;;;;;;3.60;100.00;103294.38;5083994;28;20035;-77
2023/02/04 05:52:12;;;;;;;60.45;16.23;;;;;;;3.49;100.00;103291.91;5081718;28;20036;-78
2023/02/04 05:54:37;;;;;;;60.00;17.25;;;;;;;3.43;100.00;103283.56;5084732;28;20032;-77
2023/02/04 05:57:03;;;;;;;60.70;17.30;;;;;;;3.44;100.00;103282.78;5082016;28;20024;-77
2023/02/04 05:59:28;;;;;;;60.33;17.35;;;;;;;3.45;100.00;103287.22;5083057;28;20021;-79
2023/02/04 06:01:54;;;;;;;60.80;17.92;;;;;;;3.48;100.00;103286.53;5083264;28;20107;-77
2023/02/04 06:04:19;;;;;;;69.90;19.20;;;;;;;3.49;100.00;103290.97;5081778;28;20421;-78
2023/02/04 06:06:44;;;;;;;55.20;18.52;;;;;;;3.54;100.00;103296.50;5084937;28;20510;-77
2023/02/04 06:09:10;;;;;;;57.50;18.75;;;;;;;3.59;100.00;103308.25;5081239;28;20029;-77
2023/02/04 06:11:35;;;;;;;54.47;19.15;;;;;;;3.63;100.00;103321.66;5084671;28;20024;-80
2023/02/04 06:14:01;;;;;;;58.10;18.85;;;;;;;3.63;100.00;103320.75;5083161;28;20036;-79
2023/02/04 06:16:26;;;;;;;57.90;18.15;;;;;;;3.70;100.00;103320.38;5082682;28;20474;-79
2023/02/04 06:18:52;;;;;;;55.92;18.15;;;;;;;3.74;100.00;103319.81;5083611;28;20085;-78
2023/02/04 06:21:17;;;;;;;58.15;18.02;;;;;;;3.79;100.00;103328.88;5081471;28;20106;-79
2023/02/04 06:23:42;;;;;;;56.50;18.90;;;;;;;3.79;100.00;103328.88;5084559;28;20094;-76
2023/02/04 06:26:08;;;;;;;50.97;17.83;;;;;;;3.83;100.00;103337.88;5080601;28;20033;-76
2023/02/04 06:28:33;;;;;;;51.83;17.50;;;;;;;3.83;100.00;103346.63;5083925;28;20107;-76
2023/02/04 06:30:59;;;;;;;51.20;17.15;;;;;;;3.80;100.00;103349.03;5082447;28;20058;-76
2023/02/04 06:33:24;;;;;;;55.25;18.25;;;;;;;3.77;100.00;103346.19;5081145;28;20032;-76
2023/02/04 06:35:49;;;;;;;53.53;17.27;;;;;;;3.77;100.00;103353.13;5083822;28;20111;-76
2023/02/04 06:38:15;;;;;;;52.70;17.67;;;;;;;3.81;100.00;103349.94;5080498;28;20082;-76
2023/02/04 06:40:40;;;;;;;50.45;17.58;;;;;;;3.87;100.00;103359.94;5083569;28;20426;-76
2023/02/04 06:43:06;;;;;;;58.40;19.33;;;;;;;3.88;100.00;103362.66;5081215;28;20090;-76
2023/02/04 06:45:31;;;;;;;53.10;18.92;;;;;;;3.92;100.00;103359.47;5083302;28;20102;-76
2023/02/04 06:47:56;;;;;;;54.85;18.23;;;;;;;3.91;100.00;103356.75;5083068;28;20097;-76
2023/02/04 06:50:22;;;;;;;58.53;19.52;;;;;;;3.92;100.00;103359.47;5080756;28;20064;-76
2023/02/04 06:52:47;;;;;;;52.50;18.50;;;;;;;3.92;100.00;103358.56;5083286;28;20027;-76
2023/02/04 06:55:13;;;;;;;54.38;19.15;;;;;;;3.91;100.00;103357.63;5081414;28;20031;-76
2023/02/04 06:57:39;;;;;;;58.95;21.15;;;;;;;3.93;100.00;103355.13;5087891;28;20028;-76
2023/02/04 07:00:06;;;;;;;51.70;18.77;;;;;;;3.94;100.00;103370.03;5085167;28;20028;-76
2023/02/04 07:02:31;;;;;;;52.40;18.20;;;;;;;3.94;100.00;103373.56;5086899;28;20061;-76
2023/02/04 07:04:59;;;;;;;59.42;20.00;;;;;;;3.93;100.00;103369.16;5086073;28;20036;-76
2023/02/04 07:07:24;;;;;;;58.45;18.45;;;;;;;3.91;100.00;103377.69;5085094;28;20095;-76
2023/02/04 07:09:50;;;;;;;54.45;19.30;;;;;;;3.95;100.00;103377.09;5087646;28;20471;-76
2023/02/04 07:12:15;;;;;;;53.20;19.00;;;;;;;3.95;100.00;103379.72;5084354;28;20441;-76
2023/02/04 07:14:40;;;;;;;53.72;19.77;;;;;;;3.97;100.00;103380.72;5087793;28;20035;-76
2023/02/04 07:17:05;;;;;;;56.35;19.38;;;;;;;3.97;100.00;103391.19;5084589;28;20090;-76
2023/02/04 07:19:32;;;;;;;50.45;18.27;;;;;;;3.99;100.00;103382.66;5085647;28;20029;-76
2023/02/04 07:21:57;;;;;;;59.95;19.85;;;;;;;4.00;100.00;103381.88;5085929;28;20024;-76
2023/02/04 07:24:23;;;;;;;55.22;20.23;;;;;;;4.06;100.00;103383.09;5084959;28;20032;-76
2023/02/04 07:26:48;;;;;;;58.38;21.00;;;;;;;4.08;100.00;103390.28;5087336;28;20032;-76
2023/02/04 07:29:14;;;;;;;62.95;21.92;;;;;;;4.11;100.00;103392.22;5084023;28;20025;-76
2023/02/04 07:31:39;;;;;;;59.05;20.98;;;;;;;4.13;100.00;103396.72;5087241;28;20058;-76
2023/02/04 07:34:04;;;;;;;56.95;21.65;;;;;;;4.13;100.00;103401.97;5083987;28;20028;-76
2023/02/04 07:36:30;;;;;;;57.88;21.90;;;;;;;4.12;100.00;103397.56;5085999;28;20025;-76
2023/02/04 07:38:55;;;;;;;66.05;22.38;;;;;;;4.10;100.00;103396.50;5084400;28;20082;-77
2023/02/04 07:41:20;;;;;;;59.00;21.95;;;;;;;4.16;100.00;103402.19;5083326;28;20471;-76
2023/02/04 07:43:46;;;;;;;61.47;22.02;;;;;;;4.20;100.00;103398.09;5083940;28;20546;-77
2023/02/04 07:46:12;;;;;;;60.45;22.38;;;;;;;4.25;100.00;103404.56;5084202;28;20021;-76
2023/02/04 07:48:38;;;;;;;62.97;22.75;;;;;;;4.33;100.00;103410.34;5084637;28;20044;-76
2023/02/04 07:51:03;;;;;;;61.97;23.17;;;;;;;4.39;100.00;103416.00;5086024;28;20071;-81
2023/02/04 07:53:29;;;;;;;68.85;23.55;;;;;;;4.43;100.00;103407.56;5084799;28;20387;-79
2023/02/04 07:55:54;;;;;;;68.60;24.52;;;;;;;4.43;100.00;103414.53;5086093;28;20031;-78
2023/02/04 07:58:19;;;;;;;65.35;24.05;;;;;;;4.47;100.00;103420.09;5093191;28;20040;-80
2023/02/04 08:00:45;;;;;;;67.68;24.10;;;;;;;4.55;100.00;103425.88;5092434;28;20085;-81
2023/02/04 08:03:10;;;;;;;65.15;24.17;;;;;;;4.61;100.00;103431.53;5093833;28;20186;-80
2023/02/04 08:05:35;;;;;;;62.28;24.02;;;;;;;4.66;100.00;103431.84;5086902;28;20063;-79
2023/02/04 08:08:01;;;;;;;67.28;23.98;;;;;;;4.71;100.00;103427.84;5091413;28;20105;-80
2023/02/04 08:10:27;;;;;;;61.85;22.83;;;;;;;4.76;100.00;103439.56;5093527;28;20077;-80
2023/02/04 08:12:52;;;;;;;60.35;22.98;;;;;;;4.80;100.00;103436.34;5093644;28;20032;-79
2023/02/04 08:15:17;;;;;;;63.85;22.92;;;;;;;4.79;100.00;103424.06;5093730;28;20043;-79
2023/02/04 08:17:43;;;;;;;60.85;23.38;;;;;;;4.92;100.00;103435.38;5093507;28;20020;-78
2023/02/04 08:20:09;;;;;;;64.32;24.13;;;;;;;4.99;100.00;103437.59;5092911;28;20024;-76
2023/02/04 08:22:35;;;;;;;67.03;24.40;;;;;;;5.01;100.00;103436.91;5093635;28;20024;-79
2023/02/04 08:25:01;;;;;;;63.28;24.83;;;;;;;5.08;100.00;103435.59;5090456;28;20115;-77
2023/02/04 08:27:27;;;;;;;66.28;25.10;;;;;;;5.19;100.00;103436.34;5092857;28;20032;-78
2023/02/04 08:29:54;;;;;;;60.17;24.50;;;;;;;5.26;100.00;103440.28;5092935;28;20375;-78
2023/02/04 08:32:19;;;;;;;67.65;25.40;;;;;;;5.35;100.00;103448.78;5093403;28;20040;-79
2023/02/04 08:34:47;;;;;;;59.65;24.10;;;;;;;5.39;100.00;103456.06;5093201;28;20499;-78
2023/02/04 08:37:12;;;;;;;62.63;24.60;;;;;;;5.44;100.00;103452.03;5093005;28;20050;-77
2023/02/04 08:39:39;;;;;;;65.50;25.08;;;;;;;5.51;100.00;103451.63;5086091;28;20459;-77
2023/02/04 08:42:04;;;;;;;68.05;26.67;;;;;;;5.54;100.00;103456.19;5081973;28;20033;-77
2023/02/04 08:44:29;;;;;;;63.67;24.67;;;;;;;5.63;100.00;103455.88;5084394;28;20039;-78
2023/02/04 08:46:55;;;;;;;61.83;25.25;;;;;;;5.67;100.00;103455.28;5083700;28;20089;-78
2023/02/04 08:49:20;;;;;;;63.70;25.83;;;;;;;5.81;100.00;103461.41;5083989;28;20067;-77
2023/02/04 08:51:45;;;;;;;60.40;26.58;;;;;;;5.88;100.00;103454.06;5085023;28;20032;-77
2023/02/04 08:54:11;;;;;;;62.70;26.55;;;;;;;5.91;100.00;103459.50;5081978;28;20024;-77
2023/02/04 08:56:36;;;;;;;68.28;28.02;;;;;;;5.86;100.00;103458.28;5085681;28;20074;-77
2023/02/04 08:59:01;;;;;;;59.60;27.23;;;;;;;5.88;100.00;103461.94;5082690;28;20032;-77
2023/02/04 09:01:27;;;;;;;61.45;26.40;;;;;;;5.88;100.00;103464.56;5084981;28;20166;-77
2023/02/04 09:03:52;;;;;;;56.25;25.30;;;;;;;5.90;100.00;103467.28;5083824;28;20086;-77
2023/02/04 09:06:17;;;;;;;57.47;26.30;;;;;;;5.97;100.00;103473.84;5083448;28;20039;-77
2023/02/04 09:08:43;;;;;;;57.08;26.63;;;;;;;6.05;100.00;103470.03;5084421;28;20028;-77
2023/02/04 09:11:11;;;;;;;59.20;26.42;;;;;;;6.10;100.00;103469.53;5081901;28;20023;-77
2023/02/04 09:13:36;;;;;;;55.55;25.55;;;;;;;6.15;100.00;103475.06;5084492;28;20121;-78
2023/02/04 09:16:02;;;;;;;57.55;25.23;;;;;;;6.22;100.00;103487.78;5082175;28;20436;-77
2023/02/04 09:18:29;;;;;;;56.30;26.83;;;;;;;6.26;100.00;103484.56;5084293;28;20033;-76
2023/02/04 09:20:55;;;;;;;54.10;25.40;;;;;;;6.35;100.00;103488.56;5083088;28;20020;-77
2023/02/04 09:23:21;;;;;;;56.65;25.70;;;;;;;6.42;100.00;103481.19;5082590;28;20020;-77
2023/02/04 09:25:47;;;;;;;53.65;25.55;;;;;;;6.49;100.00;103492.06;5084528;28;20042;-78
2023/02/04 09:28:13;;;;;;;49.67;23.95;;;;;;;6.51;100.00;103485.19;5081987;28;20118;-78
2023/02/04 09:30:40;;;;;;;53.25;25.20;;;;;;;6.56;100.00;103494.28;5084780;28;20071;-78
2023/02/04 09:33:06;;;;;;;52.33;25.88;;;;;;;6.66;100.00;103487.91;5082379;28;20024;-78
2023/02/04 09:35:31;;;;;;;51.28;25.88;;;;;;;6.76;100.00;103499.06;5083957;28;20516;-75
2023/02/04 09:37:57;;;;;;;49.22;24.52;;;;;;;6.76;100.00;103498.16;5082414;28;20036;-78
2023/02/04 09:40:26;;;;;;;48.53;24.77;;;;;;;6.89;100.00;103495.47;5083513;28;20387;-78
2023/02/04 09:42:53;;;;;;;52.60;25.17;;;;;;;6.94;100.00;103494.03;5083122;28;20099;-78
2023/02/04 09:45:23;;;;;;;49.28;24.15;;;;;;;7.07;100.00;103495.69;5082419;28;20491;-78
2023/02/04 09:47:50;;;;;;;49.50;23.98;;;;;;;7.15;100.00;103504.06;5083639;28;20024;-79
2023/02/04 09:50:18;;;;;;;47.20;22.67;;;;;;;7.17;100.00;103502.41;5081987;28;20033;-78
2023/02/04 09:52:46;;;;;;;48.63;22.63;;;;;;;7.22;100.00;103502.69;5084422;28;20024;-78
2023/02/04 09:55:17;;;;;;;48.05;22.50;;;;;;;7.24;100.00;103496.72;5081829;28;20112;-78
2023/02/04 09:57:42;;;;;;;44.03;21.08;;;;;;;7.35;100.00;103509.59;5084757;28;20028;-78
2023/02/04 10:00:20;;;;;;;41.58;19.95;;;;;;;7.40;100.00;103503.81;5081478;28;20028;-78
2023/02/04 10:02:45;;;;;;;40.05;19.48;;;;;;;7.54;100.00;103507.25;5082392;28;20016;-78
2023/02/04 10:05:26;;;;;;;38.83;18.33;;;;;;;7.72;100.00;103504.81;5084821;28;20375;-78
2023/02/04 10:07:51;;;;;;;38.75;17.88;;;;;;;7.97;100.00;103507.13;5082944;28;20486;-77
2023/02/04 10:10:20;;;;;;;37.47;18.85;;;;;;;8.06;100.00;103508.47;5080747;28;20051;-76
2023/02/04 10:12:50;;;;;;;35.63;16.17;;;;;;;8.21;100.00;103514.59;5080211;28;20445;-78
2023/02/04 10:15:21;;;;;;;35.67;16.38;;;;;;;8.24;100.00;103517.41;5083729;28;20150;-78
2023/02/04 10:17:49;;;;;;;36.42;16.75;;;;;;;8.23;100.00;103520.88;5081743;28;20032;-78
2023/02/04 10:20:16;;;;;;;38.38;15.30;;;;;;;8.15;100.00;103509.88;5083921;28;20012;-79
2023/02/04 10:22:41;;;;;;;34.95;14.50;;;;;;;8.18;100.00;103511.81;5081101;28;20035;-75
2023/02/04 10:25:12;;;;;;;38.42;15.88;;;;;;;8.66;100.00;103520.66;5084844;28;20033;-77
2023/02/04 10:27:47;;;;;;;34.58;12.52;;;;;;;8.99;100.00;103523.31;5081035;28;20099;-78
2023/02/04 10:30:22;;;;;;;32.90;10.95;;;;;;;9.17;100.00;103515.47;5081687;28;20049;-78
2023/02/04 10:32:48;;;;;;;34.70;11.13;;;;;;;9.43;100.00;103519.44;5088242;28;20045;-79
2023/02/04 10:35:16;;;;;;;32.30;10.30;;;;;;;10.52;100.00;103530.09;5085189;28;20024;-79
2023/02/04 10:37:42;;;;;;;29.70;9.00;;;;;;;11.63;100.00;103516.50;5088510;28;20024;-79
2023/02/04 10:40:26;;;;;;;28.20;7.93;;;;;;;12.28;100.00;103520.09;5084534;28;20118;-79
2023/02/04 10:42:52;;;;;;;29.38;9.00;;;;;;;12.52;100.00;103529.84;5086627;28;20024;-78
2023/02/04 10:45:26;;;;;;;29.58;9.25;;;;;;;12.51;100.00;103528.97;5087640;28;20539;-79
2023/02/04 10:47:53;;;;;;;30.52;10.10;;;;;;;12.95;100.00;103525.28;5086065;28;20032;-79
2023/02/04 10:50:22;;;;;;;29.80;10.32;;;;;;;13.62;100.00;103526.81;5087092;28;20115;-79
2023/02/04 10:52:54;;;;;;;30.52;9.18;;;;;;;13.71;100.00;103524.47;5085458;28;20089;-79
2023/02/04 10:55:22;;;;;;;27.30;7.70;;;;;;;12.93;100.00;103530.56;5087000;28;20036;-78
2023/02/04 10:57:49;;;;;;;27.92;7.05;;;;;;;12.09;100.00;103528.16;5084715;28;20032;-79
2023/02/04 11:00:20;;;;;;;29.77;8.13;;;;;;;11.60;100.00;103533.16;5087814;28;20039;-79
2023/02/04 11:03:01;;;;;;;28.23;7.65;;;;;;;12.05;100.00;103528.88;5085159;28;20040;-79
2023/02/04 11:05:31;;;;;;;28.13;7.95;;;;;;;12.81;100.00;103530.06;5085711;28;20036;-79
2023/02/04 11:07:57;;;;;;;29.30;8.18;;;;;;;13.36;100.00;103528.56;5086760;28;20032;-79